createdAt,value
2023-02-01T06:51:39.863Z,2.33
2023-02-01T06:54:16.823Z,3.47
2023-02-01T06:56:53.308Z,2.67
2023-02-01T06:59:30.314Z,2.87
2023-02-01T07:02:06.837Z,2.50
2023-02-01T07:04:43.709Z,2.40
2023-02-01T07:07:23.998Z,3.33
2023-02-01T07:10:00.886Z,2.97
2023-02-01T07:12:38.035Z,3.03
2023-02-01T07:15:16.294Z,2.73
2023-02-01T07:17:53.673Z,2.87
2023-02-01T07:20:30.835Z,3.03
2023-02-01T07:23:09.913Z,3.33
2023-02-01T07:25:46.791Z,2.87
2023-02-01T07:28:23.257Z,4.10
2023-02-01T07:31:01.156Z,2.97
2023-02-01T07:33:38.065Z,3.60
2023-02-01T07:36:17.804Z,3.03
2023-02-01T07:38:57.234Z,3.87
2023-02-01T07:41:34.107Z,3.43
2023-02-01T07:44:10.632Z,3.20
2023-02-01T07:46:47.590Z,2.87
2023-02-01T07:49:24.123Z,3.40
2023-02-01T07:52:01.333Z,4.77
2023-02-01T07:54:41.024Z,3.47
2023-02-01T07:57:18.002Z,3.43
2023-02-01T08:00:06.690Z,3.73
2023-02-01T08:02:49.676Z,2.80
2023-02-01T08:05:26.685Z,3.17
2023-02-01T08:08:03.934Z,3.07
2023-02-01T08:10:43.069Z,4.27
2023-02-01T08:13:20.217Z,3.87
2023-02-01T08:15:56.742Z,3.40
2023-02-01T08:18:33.758Z,3.93
2023-02-01T08:21:11.423Z,2.87
2023-02-01T08:23:48.766Z,3.50
2023-02-01T08:26:29.671Z,3.80
2023-02-01T08:29:08.864Z,2.87
2023-02-01T08:31:45.485Z,3.97
2023-02-01T08:34:22.597Z,3.60
2023-02-01T08:37:01.794Z,3.07
2023-02-01T08:39:38.853Z,3.37
2023-02-01T08:42:30.239Z,3.43
2023-02-01T08:45:09.194Z,3.83
2023-02-01T08:47:45.733Z,3.60
2023-02-01T08:50:23.764Z,3.90
2023-02-01T08:53:00.519Z,5.00
2023-02-01T08:55:37.459Z,3.40
2023-02-01T08:58:18.371Z,3.63
2023-02-01T09:00:55.567Z,4.00
2023-02-01T09:03:32.314Z,5.20
2023-02-01T09:06:10.841Z,2.87
2023-02-01T09:08:47.732Z,3.30
2023-02-01T09:11:24.809Z,3.50
2023-02-01T09:14:04.069Z,3.23
2023-02-01T09:16:41.000Z,3.50
2023-02-01T09:19:26.603Z,2.87
2023-02-01T09:22:07.106Z,2.40
2023-02-01T09:24:43.692Z,2.73
2023-02-01T09:27:20.601Z,2.60
2023-02-01T09:29:59.782Z,3.27
2023-02-01T09:32:36.856Z,2.77
2023-02-01T09:35:13.858Z,2.97
2023-02-01T09:37:51.184Z,2.87
2023-02-01T09:40:28.007Z,3.33
2023-02-01T09:43:15.747Z,2.40
2023-02-01T09:46:03.123Z,3.27
2023-02-01T09:48:42.229Z,3.90
2023-02-01T09:51:22.943Z,2.80
2023-02-01T09:54:04.742Z,3.60
2023-02-01T09:56:44.972Z,2.33
2023-02-01T09:59:33.360Z,3.20
2023-02-01T10:02:17.429Z,2.23
2023-02-01T10:04:54.891Z,2.53
2023-02-01T10:07:40.083Z,2.93
2023-02-01T10:10:22.596Z,2.70
2023-02-01T10:13:22.667Z,2.57
2023-02-01T10:16:10.764Z,2.37
2023-02-01T10:19:07.850Z,2.10
2023-02-01T10:21:51.672Z,2.90
2023-02-01T10:24:41.005Z,3.28
2023-02-01T10:27:25.167Z,2.80
2023-02-01T10:32:40.470Z,2.27
2023-02-01T10:35:22.512Z,2.37
2023-02-01T10:38:02.906Z,2.20
2023-02-01T10:40:40.000Z,2.90
2023-02-01T10:43:17.889Z,1.77
2023-02-01T10:45:54.944Z,2.10
2023-02-01T10:48:32.023Z,2.23
2023-02-01T10:51:15.350Z,2.13
2023-02-01T10:56:30.401Z,2.03
2023-02-01T10:59:08.791Z,2.30
2023-02-01T11:01:46.557Z,3.17
2023-02-01T11:04:24.659Z,2.60
2023-02-01T11:07:16.919Z,2.37
2023-02-01T11:09:56.291Z,2.40
2023-02-01T11:12:35.962Z,2.63
2023-02-01T11:15:20.429Z,3.10
2023-02-01T11:17:57.922Z,3.20
2023-02-01T11:20:42.639Z,3.40
2023-02-01T11:23:23.234Z,2.47
2023-02-01T11:26:01.837Z,2.47
2023-02-01T11:28:39.876Z,3.83
2023-02-01T11:31:17.983Z,2.37
2023-02-01T11:33:58.609Z,2.57
2023-02-01T11:36:37.102Z,1.90
2023-02-01T11:39:24.794Z,1.90
2023-02-01T11:42:06.839Z,1.37
2023-02-01T11:44:45.089Z,1.60
2023-02-01T11:47:32.962Z,1.13
2023-02-01T11:50:17.280Z,1.50
2023-02-01T11:53:07.441Z,1.30
2023-02-01T11:55:53.889Z,1.23
2023-02-01T11:58:58.074Z,1.60
2023-02-01T12:01:48.476Z,1.27
2023-02-01T12:04:53.119Z,1.90
2023-02-01T12:07:39.918Z,1.73
2023-02-01T12:10:29.059Z,2.10
2023-02-01T12:13:24.953Z,2.40
2023-02-01T12:16:09.261Z,2.30
2023-02-01T12:19:16.209Z,2.97
2023-02-01T12:22:29.722Z,3.00
2023-02-01T12:25:21.783Z,2.67
2023-02-01T12:28:20.603Z,2.30
2023-02-01T12:31:11.470Z,2.07
2023-02-01T12:34:11.943Z,2.00
2023-02-01T12:36:52.817Z,2.37
2023-02-01T12:39:36.550Z,1.80
2023-02-01T12:42:18.698Z,1.60
2023-02-01T12:45:00.817Z,1.73
2023-02-01T12:47:40.004Z,1.87
2023-02-01T12:50:23.096Z,1.53
2023-02-01T12:53:13.667Z,1.60
2023-02-01T12:55:53.861Z,1.77
2023-02-01T12:58:44.350Z,1.63
2023-02-01T13:01:26.728Z,1.50
2023-02-01T13:04:10.973Z,1.67
2023-02-01T13:06:51.152Z,1.80
2023-02-01T13:09:30.796Z,1.57
2023-02-01T13:12:14.012Z,2.07
2023-02-01T13:14:54.452Z,1.65
2023-02-01T13:17:36.123Z,2.00
2023-02-01T13:20:22.609Z,2.70
2023-02-01T13:23:04.059Z,2.40
2023-02-01T13:25:44.661Z,2.60
2023-02-01T13:28:24.700Z,2.23
2023-02-01T13:31:25.369Z,2.27
2023-02-01T13:34:36.412Z,2.77
2023-02-01T13:37:31.275Z,2.83
2023-02-01T13:40:25.352Z,2.73
2023-02-01T13:43:03.292Z,3.00
2023-02-01T13:45:42.015Z,3.27
2023-02-01T13:48:26.780Z,3.43
2023-02-01T13:51:06.625Z,3.17
2023-02-01T13:53:49.318Z,3.03
2023-02-01T13:56:28.435Z,3.75
2023-02-01T13:59:39.742Z,3.30
2023-02-01T14:02:46.062Z,2.87
2023-02-01T14:05:52.315Z,2.80
2023-02-01T14:08:48.529Z,3.87
2023-02-01T14:11:46.889Z,2.90
2023-02-01T14:14:47.822Z,2.87
2023-02-01T14:17:42.254Z,2.33
2023-02-01T14:20:50.393Z,3.23
2023-02-01T14:23:29.179Z,2.70
2023-02-01T14:26:12.757Z,2.67
2023-02-01T14:28:54.421Z,2.85
2023-02-01T14:31:59.773Z,2.00
2023-02-01T14:34:44.554Z,2.63
2023-02-01T14:37:30.545Z,2.67
2023-02-01T14:40:08.839Z,2.60
2023-02-01T14:42:57.987Z,2.47
2023-02-01T14:45:54.945Z,2.60
2023-02-01T14:48:47.936Z,2.60
2023-02-01T14:51:32.269Z,2.10
2023-02-01T14:54:09.495Z,2.27
2023-02-01T14:56:46.147Z,2.40
2023-02-01T14:59:35.518Z,2.33
2023-02-01T15:02:25.056Z,1.70
2023-02-01T15:05:02.458Z,1.70
2023-02-01T15:07:39.629Z,2.20
2023-02-01T15:10:17.384Z,1.90
2023-02-01T15:13:13.403Z,2.20
2023-02-01T15:16:16.710Z,2.27
2023-02-01T15:18:53.915Z,2.13
2023-02-01T15:21:32.661Z,2.03
2023-02-01T15:24:16.338Z,2.33
2023-02-01T15:29:33.688Z,1.97
2023-02-01T15:32:33.641Z,2.33
2023-02-01T15:35:45.574Z,2.13
2023-02-01T15:38:41.433Z,2.50
2023-02-01T15:41:20.572Z,2.47
2023-02-01T15:44:12.252Z,2.10
2023-02-01T15:46:52.697Z,2.50
2023-02-01T15:49:34.717Z,3.03
2023-02-01T15:52:23.420Z,2.90
2023-02-01T15:55:03.315Z,2.40
2023-02-01T15:57:44.983Z,2.43
2023-02-01T16:00:29.011Z,2.50
2023-02-01T16:05:47.861Z,2.30
2023-02-01T16:08:27.330Z,2.90
2023-02-01T16:11:26.259Z,2.87
2023-02-01T16:14:02.843Z,3.23
2023-02-01T16:16:39.769Z,5.43
2023-02-01T16:19:16.503Z,3.30
2023-02-01T16:21:56.472Z,3.60
2023-02-01T16:24:34.468Z,3.10
2023-02-01T16:27:11.575Z,3.23
2023-02-01T16:29:48.650Z,3.83
2023-02-01T16:32:28.180Z,4.00
2023-02-01T16:35:09.917Z,4.17
2023-02-01T16:37:55.629Z,4.10
2023-02-01T16:40:35.472Z,4.03
2023-02-01T16:43:21.810Z,3.60
2023-02-01T16:46:04.232Z,4.17
2023-02-01T16:48:51.291Z,4.90
2023-02-01T16:51:33.822Z,4.07
2023-02-01T16:54:15.282Z,3.43
2023-02-01T16:56:55.801Z,5.17
2023-02-01T16:59:35.230Z,4.30
2023-02-01T17:02:17.615Z,3.73
2023-02-01T17:05:01.958Z,3.50
2023-02-01T17:07:42.796Z,4.70
2023-02-01T17:10:34.099Z,3.97
2023-02-01T17:13:16.479Z,4.20
2023-02-01T17:16:01.528Z,3.87
2023-02-01T17:18:40.253Z,4.30
2023-02-01T17:21:30.000Z,4.63
2023-02-01T17:24:19.924Z,4.57
2023-02-01T17:27:06.770Z,4.57
2023-02-01T17:29:44.360Z,4.20
2023-02-01T17:32:26.279Z,3.40
2023-02-01T17:35:07.509Z,4.45
2023-02-01T17:37:47.005Z,3.63
2023-02-01T17:40:29.711Z,4.70
2023-02-01T17:43:17.581Z,4.17
2023-02-01T17:45:58.917Z,6.10
2023-02-01T17:48:38.401Z,3.60
2023-02-01T17:51:23.486Z,4.57
2023-02-01T17:54:03.052Z,5.00
2023-02-01T17:56:40.929Z,4.40
2023-02-01T17:59:24.522Z,3.80
2023-02-01T18:02:07.448Z,3.67
2023-02-01T18:07:26.277Z,3.70
2023-02-01T18:10:07.415Z,3.70
2023-02-01T18:12:45.885Z,3.43
2023-02-01T18:15:31.008Z,5.17
2023-02-01T18:18:09.641Z,5.03
2023-02-01T18:20:55.557Z,5.37
2023-02-01T18:23:35.262Z,5.20
2023-02-01T18:26:20.245Z,5.23
2023-02-01T18:29:02.746Z,7.67
2023-02-01T18:31:54.419Z,5.07
2023-02-01T18:34:36.456Z,5.90
2023-02-01T18:37:21.078Z,5.00
2023-02-01T18:40:01.668Z,5.30
2023-02-01T18:42:42.287Z,4.97
2023-02-01T18:45:34.266Z,5.07
2023-02-01T18:50:59.111Z,5.67
2023-02-01T18:53:39.245Z,4.68
2023-02-01T18:56:19.113Z,5.03
2023-02-01T18:58:58.795Z,5.53
2023-02-01T19:01:38.209Z,4.70
2023-02-01T19:04:25.985Z,4.33
2023-02-01T19:07:05.872Z,4.13
2023-02-01T19:09:44.606Z,5.07
2023-02-01T19:12:23.635Z,4.40
2023-02-01T19:15:03.455Z,4.63
2023-02-01T19:17:43.576Z,3.47
2023-02-01T19:20:37.564Z,4.27
2023-02-01T19:23:16.438Z,4.27
2023-02-01T19:25:56.584Z,3.70
2023-02-01T19:28:39.388Z,4.03
2023-02-01T19:31:19.083Z,3.80
2023-02-01T19:34:01.724Z,5.38
2023-02-01T19:36:44.531Z,5.13
2023-02-01T19:39:25.887Z,4.57
2023-02-01T19:42:06.632Z,4.30
2023-02-01T19:44:48.458Z,3.43
2023-02-01T19:47:32.174Z,4.77
